KACV

Arcata-Eureka Airport

Airport
ICAO code
KACV
IATA Code
ACV
Summary
ICAO Region
NAM
ICAO Territory
Location

McKinleyville, California

Serving
Arcata
Elevation
222 ft
Coordinates
40° 58' 15" N , 124° 6' 23" W
KCC
Airport WX
Fog
Metar
KACV 181653Z AUTO 31005KT 9SM CLR 11/08 A2999 RMK AO2 SLP160 T01110083

Description

Arcata Airport, also known as Arcata-Eureka Airport, is an airport located 15 nm north of Eureka in the unincorporated town of McKinleyville, California. This regional airport serves Humboldt County, including the two primary regional cities that compose its name: Arcata and Eureka.

 

Airport map

Aerial View

SKYbrary Partners:

Safety knowledge contributed by: